sensor_id;sensor_type;location;lat;lon;timestamp;temperature;humidity
17489;DHT22;8861;52.644;4.734;2024-01-10T00:02:23;-2.20;99.90
17489;DHT22;8861;52.644;4.734;2024-01-10T00:04:50;-2.20;99.90
17489;DHT22;8861;52.644;4.734;2024-01-10T00:07:19;-2.20;99.90
17489;DHT22;8861;52.644;4.734;2024-01-10T00:09:46;-2.30;99.90
17489;DHT22;8861;52.644;4.734;2024-01-10T00:12:15;-2.30;99.90
17489;DHT22;8861;52.644;4.734;2024-01-10T00:14:42;-2.30;99.90
17489;DHT22;8861;52.644;4.734;2024-01-10T00:17:09;-2.30;99.90
17489;DHT22;8861;52.644;4.734;2024-01-10T00:19:37;-2.30;99.90
17489;DHT22;8861;52.644;4.734;2024-01-10T00:22:04;-2.30;99.90
17489;DHT22;8861;52.644;4.734;2024-01-10T00:24:32;-2.30;99.90
17489;DHT22;8861;52.644;4.734;2024-01-10T00:26:59;-2.30;99.90
17489;DHT22;8861;52.644;4.734;2024-01-10T00:29:27;-2.30;99.90
17489;DHT22;8861;52.644;4.734;2024-01-10T00:31:54;-2.40;99.90
17489;DHT22;8861;52.644;4.734;2024-01-10T00:34:25;-2.30;99.90
17489;DHT22;8861;52.644;4.734;2024-01-10T00:36:52;-2.40;99.90
17489;DHT22;8861;52.644;4.734;2024-01-10T00:39:19;-2.40;99.90
17489;DHT22;8861;52.644;4.734;2024-01-10T00:41:46;-2.40;99.90
17489;DHT22;8861;52.644;4.734;2024-01-10T00:44:13;-2.40;99.90
17489;DHT22;8861;52.644;4.734;2024-01-10T00:46:42;-2.40;99.90
17489;DHT22;8861;52.644;4.734;2024-01-10T00:49:09;-2.40;99.90
17489;DHT22;8861;52.644;4.734;2024-01-10T00:51:36;-2.40;99.90
17489;DHT22;8861;52.644;4.734;2024-01-10T00:54:04;-2.40;99.90
17489;DHT22;8861;52.644;4.734;2024-01-10T00:56:33;-2.40;99.90
17489;DHT22;8861;52.644;4.734;2024-01-10T00:59:05;-2.40;99.90
17489;DHT22;8861;52.644;4.734;2024-01-10T01:01:34;-2.40;99.90
17489;DHT22;8861;52.644;4.734;2024-01-10T01:04:03;-2.30;99.90
17489;DHT22;8861;52.644;4.734;2024-01-10T01:06:30;-2.30;99.90
17489;DHT22;8861;52.644;4.734;2024-01-10T01:08:57;-2.30;99.90
17489;DHT22;8861;52.644;4.734;2024-01-10T01:11:25;-2.40;99.90
17489;DHT22;8861;52.644;4.734;2024-01-10T01:13:52;-2.40;99.90
17489;DHT22;8861;52.644;4.734;2024-01-10T01:16:19;-2.40;99.90
17489;DHT22;8861;52.644;4.734;2024-01-10T01:18:46;-2.40;99.90
17489;DHT22;8861;52.644;4.734;2024-01-10T01:21:17;-2.40;99.90
17489;DHT22;8861;52.644;4.734;2024-01-10T01:23:44;-2.40;99.90
17489;DHT22;8861;52.644;4.734;2024-01-10T01:26:13;-2.40;99.90
17489;DHT22;8861;52.644;4.734;2024-01-10T01:28:42;-2.40;99.90
17489;DHT22;8861;52.644;4.734;2024-01-10T01:31:10;-2.40;99.90
17489;DHT22;8861;52.644;4.734;2024-01-10T01:33:39;-2.40;99.90
17489;DHT22;8861;52.644;4.734;2024-01-10T01:36:07;-2.40;99.90
17489;DHT22;8861;52.644;4.734;2024-01-10T01:38:36;-2.40;99.90
17489;DHT22;8861;52.644;4.734;2024-01-10T01:41:08;-2.40;99.90
17489;DHT22;8861;52.644;4.734;2024-01-10T01:43:36;-2.40;99.90
17489;DHT22;8861;52.644;4.734;2024-01-10T01:46:03;-2.40;99.90
17489;DHT22;8861;52.644;4.734;2024-01-10T01:48:31;-2.40;99.90
17489;DHT22;8861;52.644;4.734;2024-01-10T01:51:01;-2.40;99.90
17489;DHT22;8861;52.644;4.734;2024-01-10T01:53:29;-2.50;99.90
17489;DHT22;8861;52.644;4.734;2024-01-10T01:56:02;-2.40;99.90
17489;DHT22;8861;52.644;4.734;2024-01-10T01:58:31;-2.50;99.90
17489;DHT22;8861;52.644;4.734;2024-01-10T02:00:58;-2.40;99.90
17489;DHT22;8861;52.644;4.734;2024-01-10T02:03:26;-2.40;99.90
17489;DHT22;8861;52.644;4.734;2024-01-10T02:05:53;-2.40;99.90
17489;DHT22;8861;52.644;4.734;2024-01-10T02:08:21;-2.40;99.90
17489;DHT22;8861;52.644;4.734;2024-01-10T02:10:49;-2.40;99.90
17489;DHT22;8861;52.644;4.734;2024-01-10T02:13:18;-2.40;99.90
17489;DHT22;8861;52.644;4.734;2024-01-10T02:15:45;-2.40;99.90
17489;DHT22;8861;52.644;4.734;2024-01-10T02:18:13;-2.40;99.90
17489;DHT22;8861;52.644;4.734;2024-01-10T02:20:43;-2.40;99.90
17489;DHT22;8861;52.644;4.734;2024-01-10T02:23:13;-2.40;99.90
17489;DHT22;8861;52.644;4.734;2024-01-10T02:25:42;-2.40;99.90
17489;DHT22;8861;52.644;4.734;2024-01-10T02:28:09;-2.40;99.90
17489;DHT22;8861;52.644;4.734;2024-01-10T02:30:37;-2.40;99.90
17489;DHT22;8861;52.644;4.734;2024-01-10T02:33:05;-2.40;99.90
17489;DHT22;8861;52.644;4.734;2024-01-10T02:35:32;-2.40;99.90
17489;DHT22;8861;52.644;4.734;2024-01-10T02:37:59;-2.40;99.90
17489;DHT22;8861;52.644;4.734;2024-01-10T02:40:26;-2.40;99.90
17489;DHT22;8861;52.644;4.734;2024-01-10T02:42:55;-2.40;99.90
17489;DHT22;8861;52.644;4.734;2024-01-10T02:45:22;-2.40;99.90
17489;DHT22;8861;52.644;4.734;2024-01-10T02:47:50;-2.50;99.90
17489;DHT22;8861;52.644;4.734;2024-01-10T02:50:18;-2.50;99.90
17489;DHT22;8861;52.644;4.734;2024-01-10T02:52:45;-2.50;99.90
17489;DHT22;8861;52.644;4.734;2024-01-10T02:55:12;-2.50;99.90
17489;DHT22;8861;52.644;4.734;2024-01-10T02:57:39;-2.50;99.90
17489;DHT22;8861;52.644;4.734;2024-01-10T03:00:11;-2.50;99.90
17489;DHT22;8861;52.644;4.734;2024-01-10T03:02:38;-2.50;99.90
17489;DHT22;8861;52.644;4.734;2024-01-10T03:05:05;-2.50;99.90
17489;DHT22;8861;52.644;4.734;2024-01-10T03:07:32;-2.50;99.90
17489;DHT22;8861;52.644;4.734;2024-01-10T03:10:00;-2.50;99.90
17489;DHT22;8861;52.644;4.734;2024-01-10T03:12:27;-2.50;99.90
17489;DHT22;8861;52.644;4.734;2024-01-10T03:14:54;-2.50;99.90
17489;DHT22;8861;52.644;4.734;2024-01-10T03:17:22;-2.50;99.90
17489;DHT22;8861;52.644;4.734;2024-01-10T03:19:49;-2.50;99.90
17489;DHT22;8861;52.644;4.734;2024-01-10T03:22:16;-2.50;99.90
17489;DHT22;8861;52.644;4.734;2024-01-10T03:24:44;-2.50;99.90
17489;DHT22;8861;52.644;4.734;2024-01-10T03:27:11;-2.50;99.90
17489;DHT22;8861;52.644;4.734;2024-01-10T03:29:38;-2.50;99.90
17489;DHT22;8861;52.644;4.734;2024-01-10T03:32:06;-2.50;99.90
17489;DHT22;8861;52.644;4.734;2024-01-10T03:34:35;-2.50;99.90
17489;DHT22;8861;52.644;4.734;2024-01-10T03:37:02;-2.50;99.90
17489;DHT22;8861;52.644;4.734;2024-01-10T03:39:30;-2.40;99.90
17489;DHT22;8861;52.644;4.734;2024-01-10T03:41:57;-2.40;99.90
17489;DHT22;8861;52.644;4.734;2024-01-10T03:44:26;-2.40;99.90
17489;DHT22;8861;52.644;4.734;2024-01-10T03:46:53;-2.40;99.90
17489;DHT22;8861;52.644;4.734;2024-01-10T03:49:21;-2.40;99.90
17489;DHT22;8861;52.644;4.734;2024-01-10T03:51:50;-2.40;99.90
17489;DHT22;8861;52.644;4.734;2024-01-10T03:54:17;-2.40;99.90
17489;DHT22;8861;52.644;4.734;2024-01-10T03:56:45;-2.40;99.90
17489;DHT22;8861;52.644;4.734;2024-01-10T03:59:12;-2.40;99.90
17489;DHT22;8861;52.644;4.734;2024-01-10T04:01:39;-2.40;99.90
17489;DHT22;8861;52.644;4.734;2024-01-10T04:04:06;-2.40;99.90
17489;DHT22;8861;52.644;4.734;2024-01-10T04:06:33;-2.40;99.90
17489;DHT22;8861;52.644;4.734;2024-01-10T04:09:03;-2.40;99.90
17489;DHT22;8861;52.644;4.734;2024-01-10T04:11:34;-2.40;99.90
17489;DHT22;8861;52.644;4.734;2024-01-10T04:14:01;-2.30;99.90
17489;DHT22;8861;52.644;4.734;2024-01-10T04:16:29;-2.30;99.90
17489;DHT22;8861;52.644;4.734;2024-01-10T04:18:56;-2.30;99.90
17489;DHT22;8861;52.644;4.734;2024-01-10T04:21:23;-2.30;99.90
17489;DHT22;8861;52.644;4.734;2024-01-10T04:23:50;-2.30;99.90
17489;DHT22;8861;52.644;4.734;2024-01-10T04:26:19;-2.30;99.90
17489;DHT22;8861;52.644;4.734;2024-01-10T04:28:49;-2.30;99.90
17489;DHT22;8861;52.644;4.734;2024-01-10T04:31:18;-2.30;99.90
17489;DHT22;8861;52.644;4.734;2024-01-10T04:33:45;-2.30;99.90
17489;DHT22;8861;52.644;4.734;2024-01-10T04:36:12;-2.30;99.90
17489;DHT22;8861;52.644;4.734;2024-01-10T04:38:40;-2.30;99.90
17489;DHT22;8861;52.644;4.734;2024-01-10T04:41:07;-2.30;99.90
17489;DHT22;8861;52.644;4.734;2024-01-10T04:43:35;-2.30;99.90
17489;DHT22;8861;52.644;4.734;2024-01-10T04:46:03;-2.30;99.90
17489;DHT22;8861;52.644;4.734;2024-01-10T04:48:30;-2.40;99.90
17489;DHT22;8861;52.644;4.734;2024-01-10T04:50:57;-2.40;99.90
17489;DHT22;8861;52.644;4.734;2024-01-10T04:53:24;-2.30;99.90
17489;DHT22;8861;52.644;4.734;2024-01-10T04:55:53;-2.40;99.90
17489;DHT22;8861;52.644;4.734;2024-01-10T04:58:21;-2.40;99.90
17489;DHT22;8861;52.644;4.734;2024-01-10T05:00:50;-2.40;99.90
17489;DHT22;8861;52.644;4.734;2024-01-10T05:03:17;-2.40;99.90
17489;DHT22;8861;52.644;4.734;2024-01-10T05:05:44;-2.40;99.90
17489;DHT22;8861;52.644;4.734;2024-01-10T05:08:11;-2.40;99.90
17489;DHT22;8861;52.644;4.734;2024-01-10T05:10:38;-2.40;99.90
17489;DHT22;8861;52.644;4.734;2024-01-10T05:13:05;-2.40;99.90
17489;DHT22;8861;52.644;4.734;2024-01-10T05:15:32;-2.40;99.90
17489;DHT22;8861;52.644;4.734;2024-01-10T05:18:01;-2.40;99.90
17489;DHT22;8861;52.644;4.734;2024-01-10T05:20:30;-2.50;99.90
17489;DHT22;8861;52.644;4.734;2024-01-10T05:22:57;-2.50;99.90
17489;DHT22;8861;52.644;4.734;2024-01-10T05:25:25;-2.50;99.90
17489;DHT22;8861;52.644;4.734;2024-01-10T05:27:52;-2.50;99.90
17489;DHT22;8861;52.644;4.734;2024-01-10T05:30:23;-2.50;99.90
17489;DHT22;8861;52.644;4.734;2024-01-10T05:32:51;-2.50;99.90
17489;DHT22;8861;52.644;4.734;2024-01-10T05:35:19;-2.50;99.90
17489;DHT22;8861;52.644;4.734;2024-01-10T05:37:46;-2.50;99.90
17489;DHT22;8861;52.644;4.734;2024-01-10T05:40:14;-2.50;99.90
17489;DHT22;8861;52.644;4.734;2024-01-10T05:42:41;-2.50;99.90
17489;DHT22;8861;52.644;4.734;2024-01-10T05:45:10;-2.50;99.90
17489;DHT22;8861;52.644;4.734;2024-01-10T05:47:37;-2.50;99.90
17489;DHT22;8861;52.644;4.734;2024-01-10T05:50:08;-2.60;99.90
17489;DHT22;8861;52.644;4.734;2024-01-10T05:52:37;-2.60;99.90
17489;DHT22;8861;52.644;4.734;2024-01-10T05:55:06;-2.50;99.90
17489;DHT22;8861;52.644;4.734;2024-01-10T05:57:34;-2.60;99.90
17489;DHT22;8861;52.644;4.734;2024-01-10T06:00:01;-2.60;99.90
17489;DHT22;8861;52.644;4.734;2024-01-10T06:02:28;-2.60;99.90
17489;DHT22;8861;52.644;4.734;2024-01-10T06:04:56;-2.60;99.90
17489;DHT22;8861;52.644;4.734;2024-01-10T06:07:23;-2.60;99.90
17489;DHT22;8861;52.644;4.734;2024-01-10T06:09:52;-2.60;99.90
17489;DHT22;8861;52.644;4.734;2024-01-10T06:12:19;-2.60;99.90
17489;DHT22;8861;52.644;4.734;2024-01-10T06:14:46;-2.60;99.90
17489;DHT22;8861;52.644;4.734;2024-01-10T06:17:13;-2.60;99.90
17489;DHT22;8861;52.644;4.734;2024-01-10T06:19:41;-2.60;99.90
17489;DHT22;8861;52.644;4.734;2024-01-10T06:22:08;-2.60;99.90
17489;DHT22;8861;52.644;4.734;2024-01-10T06:24:37;-2.60;99.90
17489;DHT22;8861;52.644;4.734;2024-01-10T06:27:06;-2.60;99.90
17489;DHT22;8861;52.644;4.734;2024-01-10T06:29:33;-2.60;99.90
17489;DHT22;8861;52.644;4.734;2024-01-10T06:32:00;-2.60;99.90
17489;DHT22;8861;52.644;4.734;2024-01-10T06:34:28;-2.60;99.90
17489;DHT22;8861;52.644;4.734;2024-01-10T06:36:55;-2.60;99.90
17489;DHT22;8861;52.644;4.734;2024-01-10T06:39:22;-2.60;99.90
17489;DHT22;8861;52.644;4.734;2024-01-10T06:41:50;-2.60;99.90
17489;DHT22;8861;52.644;4.734;2024-01-10T06:44:19;-2.60;99.90
17489;DHT22;8861;52.644;4.734;2024-01-10T06:46:46;-2.60;99.90
17489;DHT22;8861;52.644;4.734;2024-01-10T06:49:13;-2.60;99.90
17489;DHT22;8861;52.644;4.734;2024-01-10T06:51:41;-2.60;99.90
17489;DHT22;8861;52.644;4.734;2024-01-10T06:54:08;-2.60;99.90
17489;DHT22;8861;52.644;4.734;2024-01-10T06:56:35;-2.60;99.90
17489;DHT22;8861;52.644;4.734;2024-01-10T06:59:03;-2.60;99.90
17489;DHT22;8861;52.644;4.734;2024-01-10T07:01:32;-2.60;99.90
17489;DHT22;8861;52.644;4.734;2024-01-10T07:03:59;-2.60;99.90
17489;DHT22;8861;52.644;4.734;2024-01-10T07:06:28;-2.60;99.90
17489;DHT22;8861;52.644;4.734;2024-01-10T07:08:55;-2.60;99.90
17489;DHT22;8861;52.644;4.734;2024-01-10T07:11:26;-2.60;99.90
17489;DHT22;8861;52.644;4.734;2024-01-10T07:13:54;-2.60;99.90
17489;DHT22;8861;52.644;4.734;2024-01-10T07:16:23;-2.60;99.90
17489;DHT22;8861;52.644;4.734;2024-01-10T07:18:52;-2.60;99.90
17489;DHT22;8861;52.644;4.734;2024-01-10T07:21:20;-2.60;99.90
17489;DHT22;8861;52.644;4.734;2024-01-10T07:23:47;-2.60;99.90
17489;DHT22;8861;52.644;4.734;2024-01-10T07:26:15;-2.60;99.90
17489;DHT22;8861;52.644;4.734;2024-01-10T07:28:43;-2.50;99.90
17489;DHT22;8861;52.644;4.734;2024-01-10T07:31:11;-2.60;99.90
17489;DHT22;8861;52.644;4.734;2024-01-10T07:33:41;-2.60;99.90
17489;DHT22;8861;52.644;4.734;2024-01-10T07:36:14;-2.60;99.90
17489;DHT22;8861;52.644;4.734;2024-01-10T07:38:44;-2.60;99.90
17489;DHT22;8861;52.644;4.734;2024-01-10T07:41:12;-2.60;99.90
17489;DHT22;8861;52.644;4.734;2024-01-10T07:43:40;-2.60;99.90
17489;DHT22;8861;52.644;4.734;2024-01-10T07:46:09;-2.60;99.90
17489;DHT22;8861;52.644;4.734;2024-01-10T07:48:36;-2.60;99.90
17489;DHT22;8861;52.644;4.734;2024-01-10T07:51:04;-2.50;99.90
17489;DHT22;8861;52.644;4.734;2024-01-10T07:53:33;-2.50;99.90
17489;DHT22;8861;52.644;4.734;2024-01-10T07:56:03;-2.50;99.90
17489;DHT22;8861;52.644;4.734;2024-01-10T07:58:34;-2.50;99.90
17489;DHT22;8861;52.644;4.734;2024-01-10T08:01:04;-2.50;99.90
17489;DHT22;8861;52.644;4.734;2024-01-10T08:03:31;-2.50;99.90
17489;DHT22;8861;52.644;4.734;2024-01-10T08:05:58;-2.50;99.90
17489;DHT22;8861;52.644;4.734;2024-01-10T08:08:26;-2.50;99.90
17489;DHT22;8861;52.644;4.734;2024-01-10T08:11:13;-2.50;99.90
17489;DHT22;8861;52.644;4.734;2024-01-10T08:13:53;-2.50;99.90
17489;DHT22;8861;52.644;4.734;2024-01-10T08:16:26;-2.50;99.90
17489;DHT22;8861;52.644;4.734;2024-01-10T08:18:54;-2.50;99.90
17489;DHT22;8861;52.644;4.734;2024-01-10T08:21:21;-2.50;99.90
17489;DHT22;8861;52.644;4.734;2024-01-10T08:23:48;-2.40;99.90
17489;DHT22;8861;52.644;4.734;2024-01-10T08:26:16;-2.40;99.90
17489;DHT22;8861;52.644;4.734;2024-01-10T08:28:43;-2.40;99.90
17489;DHT22;8861;52.644;4.734;2024-01-10T08:31:10;-2.30;99.90
17489;DHT22;8861;52.644;4.734;2024-01-10T08:33:38;-2.30;99.90
17489;DHT22;8861;52.644;4.734;2024-01-10T08:36:12;-2.30;99.90
17489;DHT22;8861;52.644;4.734;2024-01-10T08:38:39;-2.20;99.90
17489;DHT22;8861;52.644;4.734;2024-01-10T08:41:07;-2.20;99.90
17489;DHT22;8861;52.644;4.734;2024-01-10T08:43:38;-2.20;99.90
17489;DHT22;8861;52.644;4.734;2024-01-10T08:46:06;-2.10;99.90
17489;DHT22;8861;52.644;4.734;2024-01-10T08:48:34;-2.10;99.90
17489;DHT22;8861;52.644;4.734;2024-01-10T08:51:03;-2.10;99.90
17489;DHT22;8861;52.644;4.734;2024-01-10T08:53:30;-2.00;99.90
17489;DHT22;8861;52.644;4.734;2024-01-10T08:55:57;-2.00;99.90
17489;DHT22;8861;52.644;4.734;2024-01-10T08:58:25;-1.90;99.90
17489;DHT22;8861;52.644;4.734;2024-01-10T09:00:54;-1.90;99.90
17489;DHT22;8861;52.644;4.734;2024-01-10T09:03:21;-1.90;99.90
17489;DHT22;8861;52.644;4.734;2024-01-10T09:05:48;-1.80;99.90
17489;DHT22;8861;52.644;4.734;2024-01-10T09:08:14;-1.80;99.90
17489;DHT22;8861;52.644;4.734;2024-01-10T09:10:42;-1.80;99.90
17489;DHT22;8861;52.644;4.734;2024-01-10T09:13:09;-1.80;99.90
17489;DHT22;8861;52.644;4.734;2024-01-10T09:15:37;-1.70;99.90
17489;DHT22;8861;52.644;4.734;2024-01-10T09:18:05;-1.70;99.90
17489;DHT22;8861;52.644;4.734;2024-01-10T09:20:32;-1.70;99.90
17489;DHT22;8861;52.644;4.734;2024-01-10T09:22:59;-1.60;99.90
17489;DHT22;8861;52.644;4.734;2024-01-10T09:25:26;-1.50;99.90
17489;DHT22;8861;52.644;4.734;2024-01-10T09:27:54;-1.50;99.90
17489;DHT22;8861;52.644;4.734;2024-01-10T09:30:21;-1.50;99.90
17489;DHT22;8861;52.644;4.734;2024-01-10T09:32:50;-1.40;99.90
17489;DHT22;8861;52.644;4.734;2024-01-10T09:35:19;-1.40;99.90
17489;DHT22;8861;52.644;4.734;2024-01-10T09:37:46;-1.40;99.90
17489;DHT22;8861;52.644;4.734;2024-01-10T09:40:14;-1.30;99.90
17489;DHT22;8861;52.644;4.734;2024-01-10T09:42:43;-1.30;99.90
17489;DHT22;8861;52.644;4.734;2024-01-10T09:45:11;-1.20;99.90
17489;DHT22;8861;52.644;4.734;2024-01-10T09:47:43;-1.20;99.90
17489;DHT22;8861;52.644;4.734;2024-01-10T09:50:13;-1.10;99.90
17489;DHT22;8861;52.644;4.734;2024-01-10T09:52:50;-1.10;99.90
17489;DHT22;8861;52.644;4.734;2024-01-10T09:55:20;-1.00;99.90
17489;DHT22;8861;52.644;4.734;2024-01-10T09:57:48;-1.00;99.90
17489;DHT22;8861;52.644;4.734;2024-01-10T10:00:16;-0.90;99.90
17489;DHT22;8861;52.644;4.734;2024-01-10T10:02:46;-0.90;99.90
17489;DHT22;8861;52.644;4.734;2024-01-10T10:05:16;-0.80;99.90
17489;DHT22;8861;52.644;4.734;2024-01-10T10:07:46;-0.80;99.90
17489;DHT22;8861;52.644;4.734;2024-01-10T10:10:13;-0.80;99.90
17489;DHT22;8861;52.644;4.734;2024-01-10T10:12:44;-0.70;99.90
17489;DHT22;8861;52.644;4.734;2024-01-10T10:15:14;-0.70;99.90
17489;DHT22;8861;52.644;4.734;2024-01-10T10:17:43;-0.60;99.90
17489;DHT22;8861;52.644;4.734;2024-01-10T10:20:14;-0.60;99.90
17489;DHT22;8861;52.644;4.734;2024-01-10T10:22:58;-0.60;99.90
17489;DHT22;8861;52.644;4.734;2024-01-10T10:25:27;-0.50;99.90
17489;DHT22;8861;52.644;4.734;2024-01-10T10:27:56;-0.50;99.90
17489;DHT22;8861;52.644;4.734;2024-01-10T10:30:23;-0.40;99.90
17489;DHT22;8861;52.644;4.734;2024-01-10T10:32:50;-0.40;99.90
17489;DHT22;8861;52.644;4.734;2024-01-10T10:35:19;-0.40;99.90
17489;DHT22;8861;52.644;4.734;2024-01-10T10:37:48;-0.30;99.90
17489;DHT22;8861;52.644;4.734;2024-01-10T10:40:15;-0.30;99.90
17489;DHT22;8861;52.644;4.734;2024-01-10T10:42:45;-0.30;99.90
17489;DHT22;8861;52.644;4.734;2024-01-10T10:45:15;-0.20;99.90
17489;DHT22;8861;52.644;4.734;2024-01-10T10:47:44;-0.20;99.90
17489;DHT22;8861;52.644;4.734;2024-01-10T10:50:19;-0.20;99.90
17489;DHT22;8861;52.644;4.734;2024-01-10T10:52:50;-0.10;99.90
17489;DHT22;8861;52.644;4.734;2024-01-10T10:55:18;-0.10;99.90
17489;DHT22;8861;52.644;4.734;2024-01-10T10:57:47;-0.10;99.90
17489;DHT22;8861;52.644;4.734;2024-01-10T11:00:16;-0.10;99.90
17489;DHT22;8861;52.644;4.734;2024-01-10T11:02:44;0.00;99.90
17489;DHT22;8861;52.644;4.734;2024-01-10T11:05:12;0.00;99.90
17489;DHT22;8861;52.644;4.734;2024-01-10T11:07:41;0.00;99.90
17489;DHT22;8861;52.644;4.734;2024-01-10T11:10:13;0.00;99.90
17489;DHT22;8861;52.644;4.734;2024-01-10T11:13:00;0.00;99.90
17489;DHT22;8861;52.644;4.734;2024-01-10T11:15:48;0.00;99.90
17489;DHT22;8861;52.644;4.734;2024-01-10T11:18:46;0.10;99.90
17489;DHT22;8861;52.644;4.734;2024-01-10T11:21:21;0.10;99.90
17489;DHT22;8861;52.644;4.734;2024-01-10T11:23:53;0.10;99.90
17489;DHT22;8861;52.644;4.734;2024-01-10T11:26:22;0.10;99.90
17489;DHT22;8861;52.644;4.734;2024-01-10T11:28:50;0.20;99.90
17489;DHT22;8861;52.644;4.734;2024-01-10T11:31:28;0.20;99.90
17489;DHT22;8861;52.644;4.734;2024-01-10T11:33:56;0.20;99.90
17489;DHT22;8861;52.644;4.734;2024-01-10T11:36:23;0.20;99.90
17489;DHT22;8861;52.644;4.734;2024-01-10T11:38:55;0.30;99.90
17489;DHT22;8861;52.644;4.734;2024-01-10T11:41:27;0.30;99.90
17489;DHT22;8861;52.644;4.734;2024-01-10T11:46:56;0.40;99.90
17489;DHT22;8861;52.644;4.734;2024-01-10T11:49:24;0.40;99.90
17489;DHT22;8861;52.644;4.734;2024-01-10T11:51:54;0.50;99.90
17489;DHT22;8861;52.644;4.734;2024-01-10T11:54:36;0.50;99.90
17489;DHT22;8861;52.644;4.734;2024-01-10T11:57:07;0.60;99.90
17489;DHT22;8861;52.644;4.734;2024-01-10T11:59:35;0.60;99.90
17489;DHT22;8861;52.644;4.734;2024-01-10T12:02:03;0.70;99.90
17489;DHT22;8861;52.644;4.734;2024-01-10T12:04:31;0.70;99.90
17489;DHT22;8861;52.644;4.734;2024-01-10T12:06:59;0.80;99.90
17489;DHT22;8861;52.644;4.734;2024-01-10T12:09:26;0.90;99.90
17489;DHT22;8861;52.644;4.734;2024-01-10T12:11:53;1.00;99.90
17489;DHT22;8861;52.644;4.734;2024-01-10T12:14:21;1.00;99.90
17489;DHT22;8861;52.644;4.734;2024-01-10T12:16:51;1.00;99.90
17489;DHT22;8861;52.644;4.734;2024-01-10T12:19:18;1.10;99.90
17489;DHT22;8861;52.644;4.734;2024-01-10T12:21:45;1.10;99.90
17489;DHT22;8861;52.644;4.734;2024-01-10T12:24:13;1.10;99.90
17489;DHT22;8861;52.644;4.734;2024-01-10T12:26:43;1.10;99.90
17489;DHT22;8861;52.644;4.734;2024-01-10T12:29:11;1.20;99.90
17489;DHT22;8861;52.644;4.734;2024-01-10T12:31:40;1.20;99.90
17489;DHT22;8861;52.644;4.734;2024-01-10T12:34:09;1.30;99.90
17489;DHT22;8861;52.644;4.734;2024-01-10T12:36:36;1.40;99.90
17489;DHT22;8861;52.644;4.734;2024-01-10T12:39:04;1.40;99.90
17489;DHT22;8861;52.644;4.734;2024-01-10T12:41:32;1.40;99.90
17489;DHT22;8861;52.644;4.734;2024-01-10T12:44:00;1.50;99.90
17489;DHT22;8861;52.644;4.734;2024-01-10T12:46:29;1.50;99.90
17489;DHT22;8861;52.644;4.734;2024-01-10T12:49:01;1.50;99.90
17489;DHT22;8861;52.644;4.734;2024-01-10T12:51:29;1.50;99.90
17489;DHT22;8861;52.644;4.734;2024-01-10T12:53:57;1.50;99.90
17489;DHT22;8861;52.644;4.734;2024-01-10T12:56:25;1.50;99.90
17489;DHT22;8861;52.644;4.734;2024-01-10T12:58:53;1.60;99.90
17489;DHT22;8861;52.644;4.734;2024-01-10T13:01:21;1.50;99.90
17489;DHT22;8861;52.644;4.734;2024-01-10T13:03:48;1.50;99.90
17489;DHT22;8861;52.644;4.734;2024-01-10T13:06:16;1.40;99.90
17489;DHT22;8861;52.644;4.734;2024-01-10T13:08:44;1.40;99.90
17489;DHT22;8861;52.644;4.734;2024-01-10T13:11:11;1.50;99.90
17489;DHT22;8861;52.644;4.734;2024-01-10T13:13:39;1.50;99.90
17489;DHT22;8861;52.644;4.734;2024-01-10T13:16:07;1.50;99.90
17489;DHT22;8861;52.644;4.734;2024-01-10T13:18:36;1.50;99.90
17489;DHT22;8861;52.644;4.734;2024-01-10T13:21:03;1.50;99.90
17489;DHT22;8861;52.644;4.734;2024-01-10T13:23:32;1.50;99.90
17489;DHT22;8861;52.644;4.734;2024-01-10T13:26:00;1.40;99.90
17489;DHT22;8861;52.644;4.734;2024-01-10T13:28:28;1.50;99.90
17489;DHT22;8861;52.644;4.734;2024-01-10T13:30:55;1.40;99.90
17489;DHT22;8861;52.644;4.734;2024-01-10T13:33:22;1.40;99.90
17489;DHT22;8861;52.644;4.734;2024-01-10T13:35:51;1.40;99.90
17489;DHT22;8861;52.644;4.734;2024-01-10T13:38:18;1.40;99.90
17489;DHT22;8861;52.644;4.734;2024-01-10T13:40:47;1.30;99.90
17489;DHT22;8861;52.644;4.734;2024-01-10T13:43:14;1.30;99.90
17489;DHT22;8861;52.644;4.734;2024-01-10T13:45:41;1.40;99.90
17489;DHT22;8861;52.644;4.734;2024-01-10T13:48:09;1.40;99.90
17489;DHT22;8861;52.644;4.734;2024-01-10T13:50:36;1.30;99.90
17489;DHT22;8861;52.644;4.734;2024-01-10T13:53:03;1.30;99.90
17489;DHT22;8861;52.644;4.734;2024-01-10T13:55:31;1.30;99.90
17489;DHT22;8861;52.644;4.734;2024-01-10T13:57:59;1.30;99.90
17489;DHT22;8861;52.644;4.734;2024-01-10T14:00:26;1.30;99.90
17489;DHT22;8861;52.644;4.734;2024-01-10T14:02:54;1.20;99.90
17489;DHT22;8861;52.644;4.734;2024-01-10T14:05:26;1.20;99.90
17489;DHT22;8861;52.644;4.734;2024-01-10T14:07:53;1.20;99.90
17489;DHT22;8861;52.644;4.734;2024-01-10T14:10:20;1.20;99.90
17489;DHT22;8861;52.644;4.734;2024-01-10T14:12:47;1.10;99.90
17489;DHT22;8861;52.644;4.734;2024-01-10T14:15:15;1.10;99.90
17489;DHT22;8861;52.644;4.734;2024-01-10T14:17:42;1.00;99.90
17489;DHT22;8861;52.644;4.734;2024-01-10T14:20:10;1.00;99.90
17489;DHT22;8861;52.644;4.734;2024-01-10T14:22:39;0.90;99.90
17489;DHT22;8861;52.644;4.734;2024-01-10T14:25:08;0.90;99.90
17489;DHT22;8861;52.644;4.734;2024-01-10T14:27:36;0.90;99.90
17489;DHT22;8861;52.644;4.734;2024-01-10T14:30:05;0.80;99.90
17489;DHT22;8861;52.644;4.734;2024-01-10T14:32:35;0.80;99.90
17489;DHT22;8861;52.644;4.734;2024-01-10T14:35:03;0.80;99.90
17489;DHT22;8861;52.644;4.734;2024-01-10T14:37:31;0.80;99.90
17489;DHT22;8861;52.644;4.734;2024-01-10T14:39:58;0.70;99.90
17489;DHT22;8861;52.644;4.734;2024-01-10T14:42:25;0.70;99.90
17489;DHT22;8861;52.644;4.734;2024-01-10T14:44:52;0.70;99.90
17489;DHT22;8861;52.644;4.734;2024-01-10T14:47:19;0.60;99.90
17489;DHT22;8861;52.644;4.734;2024-01-10T14:49:48;0.60;99.90
17489;DHT22;8861;52.644;4.734;2024-01-10T14:52:15;0.60;99.90
17489;DHT22;8861;52.644;4.734;2024-01-10T14:54:42;0.60;99.90
17489;DHT22;8861;52.644;4.734;2024-01-10T14:57:09;0.50;99.90
17489;DHT22;8861;52.644;4.734;2024-01-10T14:59:36;0.50;99.90
17489;DHT22;8861;52.644;4.734;2024-01-10T15:02:04;0.40;99.90
17489;DHT22;8861;52.644;4.734;2024-01-10T15:04:36;0.40;99.90
17489;DHT22;8861;52.644;4.734;2024-01-10T15:07:06;0.40;99.90
17489;DHT22;8861;52.644;4.734;2024-01-10T15:09:34;0.30;99.90
17489;DHT22;8861;52.644;4.734;2024-01-10T15:12:03;0.30;99.90
17489;DHT22;8861;52.644;4.734;2024-01-10T15:14:33;0.20;99.90
17489;DHT22;8861;52.644;4.734;2024-01-10T15:17:00;0.20;99.90
17489;DHT22;8861;52.644;4.734;2024-01-10T15:19:29;0.20;99.90
17489;DHT22;8861;52.644;4.734;2024-01-10T15:21:57;0.10;99.90
17489;DHT22;8861;52.644;4.734;2024-01-10T15:24:27;0.10;99.90
17489;DHT22;8861;52.644;4.734;2024-01-10T15:26:55;0.00;99.90
17489;DHT22;8861;52.644;4.734;2024-01-10T15:29:27;0.00;99.90
17489;DHT22;8861;52.644;4.734;2024-01-10T15:31:54;-0.10;99.90
17489;DHT22;8861;52.644;4.734;2024-01-10T15:34:21;-0.10;99.90
17489;DHT22;8861;52.644;4.734;2024-01-10T15:36:50;-0.10;99.90
17489;DHT22;8861;52.644;4.734;2024-01-10T15:39:17;-0.20;99.90
17489;DHT22;8861;52.644;4.734;2024-01-10T15:41:47;-0.20;99.90
17489;DHT22;8861;52.644;4.734;2024-01-10T15:44:14;-0.20;99.90
17489;DHT22;8861;52.644;4.734;2024-01-10T15:46:41;-0.30;99.90
17489;DHT22;8861;52.644;4.734;2024-01-10T15:49:08;-0.40;99.90
17489;DHT22;8861;52.644;4.734;2024-01-10T15:51:35;-0.40;99.90
17489;DHT22;8861;52.644;4.734;2024-01-10T15:54:02;-0.40;99.90
17489;DHT22;8861;52.644;4.734;2024-01-10T15:56:29;-0.50;99.90
17489;DHT22;8861;52.644;4.734;2024-01-10T15:59:00;-0.50;99.90
17489;DHT22;8861;52.644;4.734;2024-01-10T16:01:27;-0.50;99.90